sensor_id;sensor_type;location;lat;lon;timestamp;temperature;humidity
67890;DHT22;54685;52.082;5.426;2022-12-29T00:00:54;10.70;99.90
67890;DHT22;54685;52.082;5.426;2022-12-29T00:03:21;10.70;99.90
67890;DHT22;54685;52.082;5.426;2022-12-29T00:05:57;10.70;99.90
67890;DHT22;54685;52.082;5.426;2022-12-29T00:08:24;10.80;99.90
67890;DHT22;54685;52.082;5.426;2022-12-29T00:11:17;10.80;99.90
67890;DHT22;54685;52.082;5.426;2022-12-29T00:13:45;10.80;99.90
67890;DHT22;54685;52.082;5.426;2022-12-29T00:16:32;10.90;99.90
67890;DHT22;54685;52.082;5.426;2022-12-29T00:19:00;10.90;99.90
67890;DHT22;54685;52.082;5.426;2022-12-29T00:21:27;10.90;99.90
67890;DHT22;54685;52.082;5.426;2022-12-29T00:24:16;10.90;99.90
67890;DHT22;54685;52.082;5.426;2022-12-29T00:29:44;10.90;99.90
67890;DHT22;54685;52.082;5.426;2022-12-29T00:32:30;10.80;99.90
67890;DHT22;54685;52.082;5.426;2022-12-29T00:35:25;10.80;99.90
67890;DHT22;54685;52.082;5.426;2022-12-29T00:37:54;10.90;99.90
67890;DHT22;54685;52.082;5.426;2022-12-29T00:40:40;10.90;99.90
67890;DHT22;54685;52.082;5.426;2022-12-29T00:43:26;10.90;99.90
67890;DHT22;54685;52.082;5.426;2022-12-29T00:46:11;10.90;99.90
67890;DHT22;54685;52.082;5.426;2022-12-29T00:48:45;10.90;99.90
67890;DHT22;54685;52.082;5.426;2022-12-29T00:51:31;10.90;99.90
67890;DHT22;54685;52.082;5.426;2022-12-29T00:53:58;10.90;99.90
67890;DHT22;54685;52.082;5.426;2022-12-29T00:56:25;10.90;99.90
67890;DHT22;54685;52.082;5.426;2022-12-29T00:58:51;10.90;99.90
67890;DHT22;54685;52.082;5.426;2022-12-29T01:01:18;10.90;99.90
67890;DHT22;54685;52.082;5.426;2022-12-29T01:03:45;10.90;99.90
67890;DHT22;54685;52.082;5.426;2022-12-29T01:06:13;10.80;99.90
67890;DHT22;54685;52.082;5.426;2022-12-29T01:08:40;10.80;99.90
67890;DHT22;54685;52.082;5.426;2022-12-29T01:11:11;10.80;99.90
67890;DHT22;54685;52.082;5.426;2022-12-29T01:13:39;10.80;99.90
67890;DHT22;54685;52.082;5.426;2022-12-29T01:16:07;10.80;99.90
67890;DHT22;54685;52.082;5.426;2022-12-29T01:18:34;10.80;99.90
67890;DHT22;54685;52.082;5.426;2022-12-29T01:21:04;10.70;99.90
67890;DHT22;54685;52.082;5.426;2022-12-29T01:23:31;10.70;99.90
67890;DHT22;54685;52.082;5.426;2022-12-29T01:26:12;10.60;99.90
67890;DHT22;54685;52.082;5.426;2022-12-29T01:28:39;10.60;99.90
67890;DHT22;54685;52.082;5.426;2022-12-29T01:31:09;10.50;99.90
67890;DHT22;54685;52.082;5.426;2022-12-29T01:33:36;10.40;99.90
67890;DHT22;54685;52.082;5.426;2022-12-29T01:36:05;10.40;99.90
67890;DHT22;54685;52.082;5.426;2022-12-29T01:38:33;10.40;99.90
67890;DHT22;54685;52.082;5.426;2022-12-29T01:41:00;10.30;99.90
67890;DHT22;54685;52.082;5.426;2022-12-29T01:43:47;10.30;99.90
67890;DHT22;54685;52.082;5.426;2022-12-29T01:49:10;10.30;99.90
67890;DHT22;54685;52.082;5.426;2022-12-29T01:52:02;10.30;99.90
67890;DHT22;54685;52.082;5.426;2022-12-29T01:54:31;10.30;99.90
67890;DHT22;54685;52.082;5.426;2022-12-29T01:57:01;10.30;99.90
67890;DHT22;54685;52.082;5.426;2022-12-29T01:59:32;10.30;99.90
67890;DHT22;54685;52.082;5.426;2022-12-29T02:02:01;10.30;99.90
67890;DHT22;54685;52.082;5.426;2022-12-29T02:04:31;10.30;99.90
67890;DHT22;54685;52.082;5.426;2022-12-29T02:07:05;10.40;99.90
67890;DHT22;54685;52.082;5.426;2022-12-29T02:09:34;10.30;99.90
67890;DHT22;54685;52.082;5.426;2022-12-29T02:12:01;10.30;99.90
67890;DHT22;54685;52.082;5.426;2022-12-29T02:14:28;10.30;99.90
67890;DHT22;54685;52.082;5.426;2022-12-29T02:27:48;10.30;99.90
67890;DHT22;54685;52.082;5.426;2022-12-29T02:36:20;10.30;99.90
67890;DHT22;54685;52.082;5.426;2022-12-29T02:44:35;10.40;99.90
67890;DHT22;54685;52.082;5.426;2022-12-29T02:47:23;10.40;99.90
67890;DHT22;54685;52.082;5.426;2022-12-29T02:52:50;10.50;99.90
67890;DHT22;54685;52.082;5.426;2022-12-29T02:55:18;10.60;99.90
67890;DHT22;54685;52.082;5.426;2022-12-29T02:57:45;10.50;99.90
67890;DHT22;54685;52.082;5.426;2022-12-29T03:00:15;10.50;99.90
67890;DHT22;54685;52.082;5.426;2022-12-29T03:05:20;10.50;99.90
67890;DHT22;54685;52.082;5.426;2022-12-29T03:08:31;10.40;99.90
67890;DHT22;54685;52.082;5.426;2022-12-29T03:11:10;10.40;99.90
67890;DHT22;54685;52.082;5.426;2022-12-29T03:14:23;10.30;99.90
67890;DHT22;54685;52.082;5.426;2022-12-29T03:20:08;10.20;99.90
67890;DHT22;54685;52.082;5.426;2022-12-29T03:22:41;10.20;99.90
67890;DHT22;54685;52.082;5.426;2022-12-29T03:25:21;10.20;99.90
67890;DHT22;54685;52.082;5.426;2022-12-29T03:27:57;10.20;99.90
67890;DHT22;54685;52.082;5.426;2022-12-29T03:30:28;10.20;99.90
67890;DHT22;54685;52.082;5.426;2022-12-29T03:33:02;10.20;99.90
67890;DHT22;54685;52.082;5.426;2022-12-29T03:35:34;10.20;99.90
67890;DHT22;54685;52.082;5.426;2022-12-29T03:40:55;10.20;99.90
67890;DHT22;54685;52.082;5.426;2022-12-29T03:43:25;10.10;99.90
67890;DHT22;54685;52.082;5.426;2022-12-29T03:45:54;10.10;99.90
67890;DHT22;54685;52.082;5.426;2022-12-29T03:48:21;10.10;99.90
67890;DHT22;54685;52.082;5.426;2022-12-29T03:50:50;10.00;99.90
67890;DHT22;54685;52.082;5.426;2022-12-29T03:53:17;10.00;99.90
67890;DHT22;54685;52.082;5.426;2022-12-29T03:55:44;10.00;99.90
67890;DHT22;54685;52.082;5.426;2022-12-29T03:58:11;9.90;99.90
67890;DHT22;54685;52.082;5.426;2022-12-29T04:00:50;9.90;99.90
67890;DHT22;54685;52.082;5.426;2022-12-29T04:03:17;9.90;99.90
67890;DHT22;54685;52.082;5.426;2022-12-29T04:05:44;9.90;99.90
67890;DHT22;54685;52.082;5.426;2022-12-29T04:08:11;9.90;99.90
67890;DHT22;54685;52.082;5.426;2022-12-29T04:10:38;9.80;99.90
67890;DHT22;54685;52.082;5.426;2022-12-29T04:13:05;9.80;99.90
67890;DHT22;54685;52.082;5.426;2022-12-29T04:15:33;9.80;99.90
67890;DHT22;54685;52.082;5.426;2022-12-29T04:18:01;9.80;99.90
67890;DHT22;54685;52.082;5.426;2022-12-29T04:20:28;9.80;99.90
67890;DHT22;54685;52.082;5.426;2022-12-29T04:23:13;9.80;99.90
67890;DHT22;54685;52.082;5.426;2022-12-29T04:25:40;9.80;99.90
67890;DHT22;54685;52.082;5.426;2022-12-29T04:28:08;9.90;99.90
67890;DHT22;54685;52.082;5.426;2022-12-29T04:30:44;10.00;99.90
67890;DHT22;54685;52.082;5.426;2022-12-29T04:33:21;10.00;99.90
67890;DHT22;54685;52.082;5.426;2022-12-29T04:35:48;10.00;99.90
67890;DHT22;54685;52.082;5.426;2022-12-29T04:38:16;10.00;99.90
67890;DHT22;54685;52.082;5.426;2022-12-29T04:40:44;10.00;99.90
67890;DHT22;54685;52.082;5.426;2022-12-29T04:43:12;10.00;99.90
67890;DHT22;54685;52.082;5.426;2022-12-29T04:45:59;10.00;99.90
67890;DHT22;54685;52.082;5.426;2022-12-29T04:48:32;10.10;99.90
67890;DHT22;54685;52.082;5.426;2022-12-29T04:51:18;10.10;99.90
67890;DHT22;54685;52.082;5.426;2022-12-29T04:53:45;10.10;99.90
67890;DHT22;54685;52.082;5.426;2022-12-29T04:56:12;10.10;99.90
67890;DHT22;54685;52.082;5.426;2022-12-29T04:58:39;10.10;99.90
67890;DHT22;54685;52.082;5.426;2022-12-29T05:01:06;10.00;99.90
67890;DHT22;54685;52.082;5.426;2022-12-29T05:03:33;10.00;99.90
67890;DHT22;54685;52.082;5.426;2022-12-29T05:06:00;10.00;99.90
67890;DHT22;54685;52.082;5.426;2022-12-29T05:08:27;10.00;99.90
67890;DHT22;54685;52.082;5.426;2022-12-29T05:10:57;10.00;99.90
67890;DHT22;54685;52.082;5.426;2022-12-29T05:13:25;10.00;99.90
67890;DHT22;54685;52.082;5.426;2022-12-29T05:15:52;10.00;99.90
67890;DHT22;54685;52.082;5.426;2022-12-29T05:18:21;10.00;99.90
67890;DHT22;54685;52.082;5.426;2022-12-29T05:20:49;9.90;99.90
67890;DHT22;54685;52.082;5.426;2022-12-29T05:23:17;9.90;99.90
67890;DHT22;54685;52.082;5.426;2022-12-29T05:25:49;9.90;99.90
67890;DHT22;54685;52.082;5.426;2022-12-29T05:28:34;9.90;99.90
67890;DHT22;54685;52.082;5.426;2022-12-29T05:31:11;9.90;99.90
67890;DHT22;54685;52.082;5.426;2022-12-29T05:33:38;9.80;99.90
67890;DHT22;54685;52.082;5.426;2022-12-29T05:36:06;9.80;99.90
67890;DHT22;54685;52.082;5.426;2022-12-29T05:38:35;9.80;99.90
67890;DHT22;54685;52.082;5.426;2022-12-29T05:41:02;9.80;99.90
67890;DHT22;54685;52.082;5.426;2022-12-29T05:43:52;9.80;99.90
67890;DHT22;54685;52.082;5.426;2022-12-29T05:46:38;9.80;99.90
67890;DHT22;54685;52.082;5.426;2022-12-29T05:49:09;9.80;99.90
67890;DHT22;54685;52.082;5.426;2022-12-29T05:51:56;9.90;99.90
67890;DHT22;54685;52.082;5.426;2022-12-29T05:54:23;9.80;99.90
67890;DHT22;54685;52.082;5.426;2022-12-29T05:56:51;9.80;99.90
67890;DHT22;54685;52.082;5.426;2022-12-29T05:59:17;9.70;99.90
67890;DHT22;54685;52.082;5.426;2022-12-29T06:01:44;9.80;99.90
67890;DHT22;54685;52.082;5.426;2022-12-29T06:04:11;9.80;99.90
67890;DHT22;54685;52.082;5.426;2022-12-29T06:06:38;9.90;99.90
67890;DHT22;54685;52.082;5.426;2022-12-29T06:09:11;9.80;99.90
67890;DHT22;54685;52.082;5.426;2022-12-29T06:11:38;9.90;99.90
67890;DHT22;54685;52.082;5.426;2022-12-29T06:14:05;9.90;99.90
67890;DHT22;54685;52.082;5.426;2022-12-29T06:16:32;9.90;99.90
67890;DHT22;54685;52.082;5.426;2022-12-29T06:19:01;9.90;99.90
67890;DHT22;54685;52.082;5.426;2022-12-29T06:21:29;9.90;99.90
67890;DHT22;54685;52.082;5.426;2022-12-29T06:23:59;9.90;99.90
67890;DHT22;54685;52.082;5.426;2022-12-29T06:26:26;9.90;99.90
67890;DHT22;54685;52.082;5.426;2022-12-29T06:28:52;9.90;99.90
67890;DHT22;54685;52.082;5.426;2022-12-29T06:31:19;9.90;99.90
67890;DHT22;54685;52.082;5.426;2022-12-29T06:33:47;9.90;99.90
67890;DHT22;54685;52.082;5.426;2022-12-29T06:36:16;9.90;99.90
67890;DHT22;54685;52.082;5.426;2022-12-29T06:38:43;9.80;99.90
67890;DHT22;54685;52.082;5.426;2022-12-29T06:41:09;9.80;99.90
67890;DHT22;54685;52.082;5.426;2022-12-29T06:43:36;9.80;99.90
67890;DHT22;54685;52.082;5.426;2022-12-29T06:46:14;9.70;99.90
67890;DHT22;54685;52.082;5.426;2022-12-29T06:48:42;9.70;99.90
67890;DHT22;54685;52.082;5.426;2022-12-29T06:51:09;9.70;99.90
67890;DHT22;54685;52.082;5.426;2022-12-29T06:53:36;9.70;99.90
67890;DHT22;54685;52.082;5.426;2022-12-29T06:56:06;9.70;99.90
67890;DHT22;54685;52.082;5.426;2022-12-29T06:58:33;9.70;99.90
67890;DHT22;54685;52.082;5.426;2022-12-29T07:00:59;9.70;99.90
67890;DHT22;54685;52.082;5.426;2022-12-29T07:03:26;9.70;99.90
67890;DHT22;54685;52.082;5.426;2022-12-29T07:05:53;9.70;99.90
67890;DHT22;54685;52.082;5.426;2022-12-29T07:08:21;9.60;99.90
67890;DHT22;54685;52.082;5.426;2022-12-29T07:10:47;9.50;99.90
67890;DHT22;54685;52.082;5.426;2022-12-29T07:13:14;9.30;99.90
67890;DHT22;54685;52.082;5.426;2022-12-29T07:15:41;9.20;99.90
67890;DHT22;54685;52.082;5.426;2022-12-29T07:18:08;9.10;99.90
67890;DHT22;54685;52.082;5.426;2022-12-29T07:20:34;9.00;99.90
67890;DHT22;54685;52.082;5.426;2022-12-29T07:23:02;8.80;99.90
67890;DHT22;54685;52.082;5.426;2022-12-29T07:25:28;8.80;99.90
67890;DHT22;54685;52.082;5.426;2022-12-29T07:27:56;8.60;99.90
67890;DHT22;54685;52.082;5.426;2022-12-29T07:30:22;8.60;99.90
67890;DHT22;54685;52.082;5.426;2022-12-29T07:32:49;8.60;99.90
67890;DHT22;54685;52.082;5.426;2022-12-29T07:35:16;8.60;99.90
67890;DHT22;54685;52.082;5.426;2022-12-29T07:37:43;8.50;99.90
67890;DHT22;54685;52.082;5.426;2022-12-29T07:40:10;8.50;99.90
67890;DHT22;54685;52.082;5.426;2022-12-29T07:42:37;8.50;99.90
67890;DHT22;54685;52.082;5.426;2022-12-29T07:45:07;8.40;99.90
67890;DHT22;54685;52.082;5.426;2022-12-29T07:47:53;8.40;99.90
67890;DHT22;54685;52.082;5.426;2022-12-29T07:50:19;8.40;99.90
67890;DHT22;54685;52.082;5.426;2022-12-29T07:52:46;8.50;99.90
67890;DHT22;54685;52.082;5.426;2022-12-29T07:55:15;8.50;99.90
67890;DHT22;54685;52.082;5.426;2022-12-29T07:57:42;8.50;99.90
67890;DHT22;54685;52.082;5.426;2022-12-29T08:00:10;8.60;99.90
67890;DHT22;54685;52.082;5.426;2022-12-29T08:02:39;8.70;99.90
67890;DHT22;54685;52.082;5.426;2022-12-29T08:05:06;8.80;99.90
67890;DHT22;54685;52.082;5.426;2022-12-29T08:07:33;8.80;99.90
67890;DHT22;54685;52.082;5.426;2022-12-29T08:10:00;8.90;99.90
67890;DHT22;54685;52.082;5.426;2022-12-29T08:12:28;8.90;99.90
67890;DHT22;54685;52.082;5.426;2022-12-29T08:14:54;8.90;99.90
67890;DHT22;54685;52.082;5.426;2022-12-29T08:17:21;8.90;99.90
67890;DHT22;54685;52.082;5.426;2022-12-29T08:19:51;9.00;99.90
67890;DHT22;54685;52.082;5.426;2022-12-29T08:22:18;9.00;99.90
67890;DHT22;54685;52.082;5.426;2022-12-29T08:24:45;9.00;99.90
67890;DHT22;54685;52.082;5.426;2022-12-29T08:27:12;9.10;99.90
67890;DHT22;54685;52.082;5.426;2022-12-29T08:29:46;9.20;99.90
67890;DHT22;54685;52.082;5.426;2022-12-29T08:32:13;9.20;99.90
67890;DHT22;54685;52.082;5.426;2022-12-29T08:34:40;9.20;99.90
67890;DHT22;54685;52.082;5.426;2022-12-29T08:37:07;9.30;99.90
67890;DHT22;54685;52.082;5.426;2022-12-29T08:39:33;9.30;99.90
67890;DHT22;54685;52.082;5.426;2022-12-29T08:42:01;9.30;99.90
67890;DHT22;54685;52.082;5.426;2022-12-29T08:44:29;9.30;99.90
67890;DHT22;54685;52.082;5.426;2022-12-29T08:46:56;9.30;99.90
67890;DHT22;54685;52.082;5.426;2022-12-29T08:49:23;9.30;99.90
67890;DHT22;54685;52.082;5.426;2022-12-29T08:51:56;9.30;99.90
67890;DHT22;54685;52.082;5.426;2022-12-29T08:54:23;9.30;99.90
67890;DHT22;54685;52.082;5.426;2022-12-29T08:56:50;9.30;99.90
67890;DHT22;54685;52.082;5.426;2022-12-29T08:59:17;9.30;99.90
67890;DHT22;54685;52.082;5.426;2022-12-29T09:01:46;9.30;99.90
67890;DHT22;54685;52.082;5.426;2022-12-29T09:04:13;9.20;99.90
67890;DHT22;54685;52.082;5.426;2022-12-29T09:06:44;9.20;99.90
67890;DHT22;54685;52.082;5.426;2022-12-29T09:09:11;9.20;99.90
67890;DHT22;54685;52.082;5.426;2022-12-29T09:11:38;9.20;99.90
67890;DHT22;54685;52.082;5.426;2022-12-29T09:14:06;9.20;99.90
67890;DHT22;54685;52.082;5.426;2022-12-29T09:16:33;9.20;99.90
67890;DHT22;54685;52.082;5.426;2022-12-29T09:19:04;9.20;99.90
67890;DHT22;54685;52.082;5.426;2022-12-29T09:21:31;9.20;99.90
67890;DHT22;54685;52.082;5.426;2022-12-29T09:23:58;9.20;99.90
67890;DHT22;54685;52.082;5.426;2022-12-29T09:26:25;9.20;99.90
67890;DHT22;54685;52.082;5.426;2022-12-29T09:28:52;9.20;99.90
67890;DHT22;54685;52.082;5.426;2022-12-29T09:31:18;9.20;99.90
67890;DHT22;54685;52.082;5.426;2022-12-29T09:33:45;9.30;99.90
67890;DHT22;54685;52.082;5.426;2022-12-29T09:36:13;9.30;99.90
67890;DHT22;54685;52.082;5.426;2022-12-29T09:38:39;9.30;99.90
67890;DHT22;54685;52.082;5.426;2022-12-29T09:44:23;9.20;99.90
67890;DHT22;54685;52.082;5.426;2022-12-29T09:46:53;9.10;99.90
67890;DHT22;54685;52.082;5.426;2022-12-29T09:49:49;9.10;99.90
67890;DHT22;54685;52.082;5.426;2022-12-29T09:52:24;9.00;99.90
67890;DHT22;54685;52.082;5.426;2022-12-29T09:55:03;8.90;99.90
67890;DHT22;54685;52.082;5.426;2022-12-29T09:57:46;8.90;99.90
67890;DHT22;54685;52.082;5.426;2022-12-29T10:00:18;8.90;99.90
67890;DHT22;54685;52.082;5.426;2022-12-29T10:03:19;8.90;99.90
67890;DHT22;54685;52.082;5.426;2022-12-29T10:05:58;9.00;99.90
67890;DHT22;54685;52.082;5.426;2022-12-29T10:15:09;9.00;99.90
67890;DHT22;54685;52.082;5.426;2022-12-29T10:20:31;9.10;99.90
67890;DHT22;54685;52.082;5.426;2022-12-29T10:23:16;9.10;99.90
67890;DHT22;54685;52.082;5.426;2022-12-29T10:25:47;9.10;99.90
67890;DHT22;54685;52.082;5.426;2022-12-29T10:28:21;9.00;99.90
67890;DHT22;54685;52.082;5.426;2022-12-29T10:30:50;9.00;99.90
67890;DHT22;54685;52.082;5.426;2022-12-29T10:33:22;9.00;99.90
67890;DHT22;54685;52.082;5.426;2022-12-29T10:35:51;9.00;99.90
67890;DHT22;54685;52.082;5.426;2022-12-29T10:38:29;9.00;99.90
67890;DHT22;54685;52.082;5.426;2022-12-29T10:43:48;8.90;99.90
67890;DHT22;54685;52.082;5.426;2022-12-29T10:46:23;9.00;99.90
67890;DHT22;54685;52.082;5.426;2022-12-29T10:48:50;8.90;99.90
67890;DHT22;54685;52.082;5.426;2022-12-29T10:51:25;8.90;99.90
67890;DHT22;54685;52.082;5.426;2022-12-29T10:54:03;8.80;99.90
67890;DHT22;54685;52.082;5.426;2022-12-29T10:56:38;8.90;99.90
67890;DHT22;54685;52.082;5.426;2022-12-29T10:59:10;8.90;99.90
67890;DHT22;54685;52.082;5.426;2022-12-29T11:07:29;9.00;99.90
67890;DHT22;54685;52.082;5.426;2022-12-29T11:13:01;9.00;99.90
67890;DHT22;54685;52.082;5.426;2022-12-29T11:18:18;9.10;99.90
67890;DHT22;54685;52.082;5.426;2022-12-29T11:20:45;9.10;99.90
67890;DHT22;54685;52.082;5.426;2022-12-29T11:23:33;9.10;99.90
67890;DHT22;54685;52.082;5.426;2022-12-29T11:26:23;9.20;99.90
67890;DHT22;54685;52.082;5.426;2022-12-29T11:31:41;9.30;99.90
67890;DHT22;54685;52.082;5.426;2022-12-29T11:34:26;9.30;99.90
67890;DHT22;54685;52.082;5.426;2022-12-29T11:37:29;9.30;99.90
67890;DHT22;54685;52.082;5.426;2022-12-29T11:39:59;9.20;99.90
67890;DHT22;54685;52.082;5.426;2022-12-29T11:42:40;9.20;99.90
67890;DHT22;54685;52.082;5.426;2022-12-29T11:45:27;9.10;99.90
67890;DHT22;54685;52.082;5.426;2022-12-29T11:47:56;9.20;99.90
67890;DHT22;54685;52.082;5.426;2022-12-29T11:50:35;9.20;99.90
67890;DHT22;54685;52.082;5.426;2022-12-29T11:53:35;9.20;99.90
67890;DHT22;54685;52.082;5.426;2022-12-29T11:56:10;9.20;99.90
67890;DHT22;54685;52.082;5.426;2022-12-29T11:58:38;9.20;99.90
67890;DHT22;54685;52.082;5.426;2022-12-29T12:01:35;9.20;99.90
67890;DHT22;54685;52.082;5.426;2022-12-29T12:04:10;9.20;99.90
67890;DHT22;54685;52.082;5.426;2022-12-29T12:06:47;9.30;99.90
67890;DHT22;54685;52.082;5.426;2022-12-29T12:09:23;9.30;99.90
67890;DHT22;54685;52.082;5.426;2022-12-29T12:11:52;9.30;99.90
67890;DHT22;54685;52.082;5.426;2022-12-29T12:14:29;9.40;99.90
67890;DHT22;54685;52.082;5.426;2022-12-29T12:17:37;9.50;99.90
67890;DHT22;54685;52.082;5.426;2022-12-29T12:20:21;10.10;99.90
67890;DHT22;54685;52.082;5.426;2022-12-29T12:25:38;10.30;99.90
67890;DHT22;54685;52.082;5.426;2022-12-29T12:28:17;10.20;99.90
67890;DHT22;54685;52.082;5.426;2022-12-29T12:30:49;10.30;99.90
67890;DHT22;54685;52.082;5.426;2022-12-29T12:36:48;10.80;99.90
67890;DHT22;54685;52.082;5.426;2022-12-29T12:39:29;11.10;99.90
67890;DHT22;54685;52.082;5.426;2022-12-29T12:42:19;11.00;99.90
67890;DHT22;54685;52.082;5.426;2022-12-29T13:04:51;10.20;99.90
67890;DHT22;54685;52.082;5.426;2022-12-29T13:07:28;10.20;99.90
67890;DHT22;54685;52.082;5.426;2022-12-29T13:13:09;10.10;99.90
67890;DHT22;54685;52.082;5.426;2022-12-29T13:18:24;10.10;99.90
67890;DHT22;54685;52.082;5.426;2022-12-29T13:24:12;10.10;99.90
67890;DHT22;54685;52.082;5.426;2022-12-29T13:26:50;10.10;99.90
67890;DHT22;54685;52.082;5.426;2022-12-29T13:32:40;10.00;99.90
67890;DHT22;54685;52.082;5.426;2022-12-29T13:37:52;9.70;99.90
67890;DHT22;54685;52.082;5.426;2022-12-29T13:40:26;9.60;99.90
67890;DHT22;54685;52.082;5.426;2022-12-29T13:42:55;9.60;99.90
67890;DHT22;54685;52.082;5.426;2022-12-29T13:45:25;9.50;99.90
67890;DHT22;54685;52.082;5.426;2022-12-29T13:48:17;9.50;99.90
67890;DHT22;54685;52.082;5.426;2022-12-29T13:50:44;9.50;99.90
67890;DHT22;54685;52.082;5.426;2022-12-29T13:56:12;9.50;99.90
67890;DHT22;54685;52.082;5.426;2022-12-29T14:03:58;9.50;99.90
67890;DHT22;54685;52.082;5.426;2022-12-29T14:06:31;9.50;99.90
67890;DHT22;54685;52.082;5.426;2022-12-29T14:09:04;9.50;99.90
67890;DHT22;54685;52.082;5.426;2022-12-29T14:11:37;9.50;99.90
67890;DHT22;54685;52.082;5.426;2022-12-29T14:14:23;9.50;99.90
67890;DHT22;54685;52.082;5.426;2022-12-29T14:16:52;9.40;99.90
67890;DHT22;54685;52.082;5.426;2022-12-29T14:19:21;9.40;99.90
67890;DHT22;54685;52.082;5.426;2022-12-29T14:22:09;9.30;99.90
67890;DHT22;54685;52.082;5.426;2022-12-29T14:24:44;9.20;99.90
67890;DHT22;54685;52.082;5.426;2022-12-29T14:34:55;8.90;99.90
67890;DHT22;54685;52.082;5.426;2022-12-29T14:37:25;8.90;99.90
67890;DHT22;54685;52.082;5.426;2022-12-29T14:40:16;8.70;99.90
67890;DHT22;54685;52.082;5.426;2022-12-29T14:42:50;8.60;99.90
67890;DHT22;54685;52.082;5.426;2022-12-29T14:47:49;8.50;99.90
67890;DHT22;54685;52.082;5.426;2022-12-29T14:52:56;8.50;99.90
67890;DHT22;54685;52.082;5.426;2022-12-29T14:55:40;8.50;99.90
67890;DHT22;54685;52.082;5.426;2022-12-29T14:58:23;8.50;99.90
67890;DHT22;54685;52.082;5.426;2022-12-29T15:00:52;8.50;99.90
67890;DHT22;54685;52.082;5.426;2022-12-29T15:03:27;8.50;99.90
67890;DHT22;54685;52.082;5.426;2022-12-29T15:11:31;8.60;99.90
67890;DHT22;54685;52.082;5.426;2022-12-29T15:14:38;8.60;99.90
67890;DHT22;54685;52.082;5.426;2022-12-29T15:17:32;8.70;99.90
67890;DHT22;54685;52.082;5.426;2022-12-29T15:19:59;8.70;99.90
67890;DHT22;54685;52.082;5.426;2022-12-29T15:22:27;8.70;99.90
67890;DHT22;54685;52.082;5.426;2022-12-29T15:24:55;8.80;99.90
67890;DHT22;54685;52.082;5.426;2022-12-29T15:27:24;8.70;99.90
67890;DHT22;54685;52.082;5.426;2022-12-29T15:29:57;8.80;99.90
67890;DHT22;54685;52.082;5.426;2022-12-29T15:32:26;8.80;99.90
67890;DHT22;54685;52.082;5.426;2022-12-29T15:34:55;8.80;99.90
67890;DHT22;54685;52.082;5.426;2022-12-29T15:37:28;8.80;99.90
67890;DHT22;54685;52.082;5.426;2022-12-29T15:39:58;8.80;99.90
67890;DHT22;54685;52.082;5.426;2022-12-29T15:45:05;8.80;99.90
67890;DHT22;54685;52.082;5.426;2022-12-29T15:47:38;8.80;99.90
67890;DHT22;54685;52.082;5.426;2022-12-29T15:50:23;8.80;99.90
67890;DHT22;54685;52.082;5.426;2022-12-29T15:52:52;8.90;99.90
67890;DHT22;54685;52.082;5.426;2022-12-29T15:55:40;8.90;99.90
67890;DHT22;54685;52.082;5.426;2022-12-29T15:58:44;8.90;99.90
67890;DHT22;54685;52.082;5.426;2022-12-29T16:01:23;8.90;99.90
67890;DHT22;54685;52.082;5.426;2022-12-29T16:03:52;8.90;99.90
67890;DHT22;54685;52.082;5.426;2022-12-29T16:06:29;8.90;99.90
67890;DHT22;54685;52.082;5.426;2022-12-29T16:08:58;8.90;99.90
67890;DHT22;54685;52.082;5.426;2022-12-29T16:11:35;8.80;99.90
67890;DHT22;54685;52.082;5.426;2022-12-29T16:14:13;8.90;99.90
67890;DHT22;54685;52.082;5.426;2022-12-29T16:16:43;8.80;99.90
67890;DHT22;54685;52.082;5.426;2022-12-29T16:19:21;8.80;99.90
67890;DHT22;54685;52.082;5.426;2022-12-29T16:21:49;8.90;99.90
67890;DHT22;54685;52.082;5.426;2022-12-29T16:24:19;8.80;99.90
67890;DHT22;54685;52.082;5.426;2022-12-29T16:26:48;8.90;99.90
67890;DHT22;54685;52.082;5.426;2022-12-29T16:29:16;8.80;99.90
67890;DHT22;54685;52.082;5.426;2022-12-29T16:31:53;8.80;99.90
67890;DHT22;54685;52.082;5.426;2022-12-29T16:34:25;8.80;99.90
67890;DHT22;54685;52.082;5.426;2022-12-29T16:36:58;8.90;99.90
67890;DHT22;54685;52.082;5.426;2022-12-29T16:39:34;8.80;99.90
67890;DHT22;54685;52.082;5.426;2022-12-29T16:45:58;8.70;99.90
67890;DHT22;54685;52.082;5.426;2022-12-29T16:48:21;8.70;99.90
67890;DHT22;54685;52.082;5.426;2022-12-29T16:50:51;8.70;99.90
67890;DHT22;54685;52.082;5.426;2022-12-29T16:53:25;8.60;99.90
67890;DHT22;54685;52.082;5.426;2022-12-29T16:55:54;8.60;99.90
67890;DHT22;54685;52.082;5.426;2022-12-29T16:58:26;8.50;99.90
67890;DHT22;54685;52.082;5.426;2022-12-29T17:00:59;8.50;99.90
67890;DHT22;54685;52.082;5.426;2022-12-29T17:03:34;8.40;99.90
67890;DHT22;54685;52.082;5.426;2022-12-29T17:06:02;8.40;99.90
67890;DHT22;54685;52.082;5.426;2022-12-29T17:08:38;8.40;99.90
67890;DHT22;54685;52.082;5.426;2022-12-29T17:11:22;8.40;99.90
67890;DHT22;54685;52.082;5.426;2022-12-29T17:17:15;8.30;99.90
67890;DHT22;54685;52.082;5.426;2022-12-29T17:19:49;8.30;99.90
67890;DHT22;54685;52.082;5.426;2022-12-29T17:22:25;8.30;99.90
67890;DHT22;54685;52.082;5.426;2022-12-29T17:24:57;8.30;99.90
67890;DHT22;54685;52.082;5.426;2022-12-29T17:27:26;8.30;99.90
67890;DHT22;54685;52.082;5.426;2022-12-29T17:30:09;8.30;99.90
67890;DHT22;54685;52.082;5.426;2022-12-29T17:32:37;8.30;99.90
67890;DHT22;54685;52.082;5.426;2022-12-29T17:35:04;8.30;99.90
67890;DHT22;54685;52.082;5.426;2022-12-29T17:37:36;8.20;99.90
67890;DHT22;54685;52.082;5.426;2022-12-29T17:40:05;8.20;99.90
67890;DHT22;54685;52.082;5.426;2022-12-29T17:42:36;8.20;99.90
67890;DHT22;54685;52.082;5.426;2022-12-29T17:45:04;8.20;99.90
67890;DHT22;54685;52.082;5.426;2022-12-29T17:47:31;8.10;99.90
67890;DHT22;54685;52.082;5.426;2022-12-29T17:49:59;8.10;99.90
67890;DHT22;54685;52.082;5.426;2022-12-29T17:52:25;8.10;99.90
67890;DHT22;54685;52.082;5.426;2022-12-29T17:54:53;8.10;99.90
67890;DHT22;54685;52.082;5.426;2022-12-29T17:57:20;8.00;99.90
67890;DHT22;54685;52.082;5.426;2022-12-29T17:59:47;8.10;99.90
67890;DHT22;54685;52.082;5.426;2022-12-29T18:02:27;8.10;99.90
67890;DHT22;54685;52.082;5.426;2022-12-29T18:04:56;8.10;99.90
67890;DHT22;54685;52.082;5.426;2022-12-29T18:07:26;8.10;99.90
67890;DHT22;54685;52.082;5.426;2022-12-29T18:10:01;8.10;99.90
67890;DHT22;54685;52.082;5.426;2022-12-29T18:12:38;8.10;99.90
67890;DHT22;54685;52.082;5.426;2022-12-29T18:15:09;8.10;99.90
67890;DHT22;54685;52.082;5.426;2022-12-29T18:17:41;8.10;99.90
67890;DHT22;54685;52.082;5.426;2022-12-29T18:20:08;8.10;99.90
67890;DHT22;54685;52.082;5.426;2022-12-29T18:22:35;8.00;99.90
67890;DHT22;54685;52.082;5.426;2022-12-29T18:25:40;8.00;99.90
67890;DHT22;54685;52.082;5.426;2022-12-29T18:28:07;8.00;99.90
67890;DHT22;54685;52.082;5.426;2022-12-29T18:30:35;8.00;99.90
67890;DHT22;54685;52.082;5.426;2022-12-29T18:33:03;7.90;99.90
67890;DHT22;54685;52.082;5.426;2022-12-29T18:35:39;7.90;99.90
67890;DHT22;54685;52.082;5.426;2022-12-29T18:38:09;7.80;99.90
67890;DHT22;54685;52.082;5.426;2022-12-29T18:40:56;7.80;99.90
67890;DHT22;54685;52.082;5.426;2022-12-29T18:43:49;7.80;99.90